sensor_id;sensor_type;location;lat;lon;timestamp;pressure;altitude;pressure_sealevel;temperature;humidity
49529;BME280;35423;37.320;-121.762;2023-11-22T00:00:48;100953.22;;;30.67;12.13
49529;BME280;35423;37.320;-121.762;2023-11-22T00:03:14;100954.89;;;30.08;12.24
49529;BME280;35423;37.320;-121.762;2023-11-22T00:05:40;100956.61;;;30.64;12.37
49529;BME280;35423;37.320;-121.762;2023-11-22T00:08:09;100955.28;;;30.00;12.54
49529;BME280;35423;37.320;-121.762;2023-11-22T00:10:40;100953.63;;;29.78;12.48
49529;BME280;35423;37.320;-121.762;2023-11-22T00:13:04;100954.16;;;30.04;12.53
49529;BME280;35423;37.320;-121.762;2023-11-22T00:15:29;100956.41;;;30.03;12.65
49529;BME280;35423;37.320;-121.762;2023-11-22T00:17:58;100954.92;;;29.87;12.79
49529;BME280;35423;37.320;-121.762;2023-11-22T00:20:30;100963.07;;;29.71;12.86
49529;BME280;35423;37.320;-121.762;2023-11-22T00:22:59;100966.43;;;29.44;12.89
49529;BME280;35423;37.320;-121.762;2023-11-22T00:25:29;100965.03;;;29.79;12.97
49529;BME280;35423;37.320;-121.762;2023-11-22T00:27:58;100970.64;;;29.41;13.09
49529;BME280;35423;37.320;-121.762;2023-11-22T00:30:26;100972.83;;;29.27;13.06
49529;BME280;35423;37.320;-121.762;2023-11-22T00:32:51;100975.56;;;29.60;13.10
49529;BME280;35423;37.320;-121.762;2023-11-22T00:35:19;100981.12;;;29.01;13.12
49529;BME280;35423;37.320;-121.762;2023-11-22T00:37:45;100981.77;;;29.53;13.18
49529;BME280;35423;37.320;-121.762;2023-11-22T00:40:13;100981.30;;;29.19;13.17
49529;BME280;35423;37.320;-121.762;2023-11-22T00:42:39;100978.13;;;29.23;13.15
49529;BME280;35423;37.320;-121.762;2023-11-22T00:45:09;100980.12;;;29.36;13.31
49529;BME280;35423;37.320;-121.762;2023-11-22T00:47:37;100976.79;;;28.71;13.57
49529;BME280;35423;37.320;-121.762;2023-11-22T00:50:02;100976.55;;;28.64;13.89
49529;BME280;35423;37.320;-121.762;2023-11-22T00:52:28;100975.81;;;28.40;14.16
49529;BME280;35423;37.320;-121.762;2023-11-22T00:54:55;100976.25;;;28.12;14.34
49529;BME280;35423;37.320;-121.762;2023-11-22T00:57:22;100975.60;;;27.90;14.40
49529;BME280;35423;37.320;-121.762;2023-11-22T00:59:57;100981.28;;;27.96;14.63
49529;BME280;35423;37.320;-121.762;2023-11-22T01:02:22;100985.42;;;28.01;14.82
49529;BME280;35423;37.320;-121.762;2023-11-22T01:04:48;100983.72;;;27.73;15.01
49529;BME280;35423;37.320;-121.762;2023-11-22T01:07:16;100982.39;;;27.05;15.20
49529;BME280;35423;37.320;-121.762;2023-11-22T01:09:44;100985.25;;;27.45;15.31
49529;BME280;35423;37.320;-121.762;2023-11-22T01:12:09;100988.62;;;27.38;15.40
49529;BME280;35423;37.320;-121.762;2023-11-22T01:14:34;100989.02;;;26.85;15.51
49529;BME280;35423;37.320;-121.762;2023-11-22T01:17:03;100983.76;;;27.26;15.54
49529;BME280;35423;37.320;-121.762;2023-11-22T01:19:28;100983.33;;;26.92;15.62
49529;BME280;35423;37.320;-121.762;2023-11-22T01:21:53;100990.88;;;26.68;15.69
49529;BME280;35423;37.320;-121.762;2023-11-22T01:24:20;100998.00;;;26.11;15.81
49529;BME280;35423;37.320;-121.762;2023-11-22T01:26:46;101003.65;;;26.70;15.82
49529;BME280;35423;37.320;-121.762;2023-11-22T01:29:13;101000.66;;;26.02;15.90
49529;BME280;35423;37.320;-121.762;2023-11-22T01:31:39;101000.94;;;26.21;15.92
49529;BME280;35423;37.320;-121.762;2023-11-22T01:34:04;101000.55;;;26.14;15.95
49529;BME280;35423;37.320;-121.762;2023-11-22T01:36:33;100998.19;;;26.45;16.01
49529;BME280;35423;37.320;-121.762;2023-11-22T01:39:00;100998.38;;;26.10;16.13
49529;BME280;35423;37.320;-121.762;2023-11-22T01:41:24;100999.20;;;24.91;16.26
49529;BME280;35423;37.320;-121.762;2023-11-22T01:43:49;101000.29;;;25.81;16.16
49529;BME280;35423;37.320;-121.762;2023-11-22T01:46:23;100996.47;;;25.78;15.95
49529;BME280;35423;37.320;-121.762;2023-11-22T01:48:44;100995.42;;;25.05;15.92
49529;BME280;35423;37.320;-121.762;2023-11-22T01:51:16;100997.79;;;25.94;15.73
49529;BME280;35423;37.320;-121.762;2023-11-22T01:53:41;100999.72;;;25.86;15.85
49529;BME280;35423;37.320;-121.762;2023-11-22T01:56:11;101006.22;;;26.13;15.98
49529;BME280;35423;37.320;-121.762;2023-11-22T01:58:36;101005.59;;;25.83;16.20
49529;BME280;35423;37.320;-121.762;2023-11-22T02:01:06;101004.23;;;25.58;16.36
49529;BME280;35423;37.320;-121.762;2023-11-22T02:03:32;101001.16;;;25.38;16.44
49529;BME280;35423;37.320;-121.762;2023-11-22T02:05:59;101003.90;;;25.24;16.50
49529;BME280;35423;37.320;-121.762;2023-11-22T02:08:24;101003.54;;;24.84;16.55
49529;BME280;35423;37.320;-121.762;2023-11-22T02:11:04;101008.95;;;25.25;16.55
49529;BME280;35423;37.320;-121.762;2023-11-22T02:13:25;101011.56;;;25.11;16.61
49529;BME280;35423;37.320;-121.762;2023-11-22T02:15:52;101014.00;;;25.59;16.79
49529;BME280;35423;37.320;-121.762;2023-11-22T02:18:25;101013.32;;;24.17;16.92
49529;BME280;35423;37.320;-121.762;2023-11-22T02:20:52;101017.86;;;24.85;16.94
49529;BME280;35423;37.320;-121.762;2023-11-22T02:23:21;101025.03;;;23.85;17.04
49529;BME280;35423;37.320;-121.762;2023-11-22T02:25:47;101023.24;;;24.42;16.99
49529;BME280;35423;37.320;-121.762;2023-11-22T02:28:12;101021.18;;;24.33;17.07
49529;BME280;35423;37.320;-121.762;2023-11-22T02:30:38;101018.47;;;24.76;17.09
49529;BME280;35423;37.320;-121.762;2023-11-22T02:33:11;101020.04;;;24.61;17.16
49529;BME280;35423;37.320;-121.762;2023-11-22T02:35:35;101018.36;;;24.75;17.17
49529;BME280;35423;37.320;-121.762;2023-11-22T02:38:01;101013.72;;;23.87;17.18
49529;BME280;35423;37.320;-121.762;2023-11-22T02:40:30;101008.53;;;24.28;17.18
49529;BME280;35423;37.320;-121.762;2023-11-22T02:42:57;101002.06;;;24.52;17.17
49529;BME280;35423;37.320;-121.762;2023-11-22T02:45:24;100998.89;;;24.12;17.21
49529;BME280;35423;37.320;-121.762;2023-11-22T02:47:49;101002.04;;;24.01;17.30
49529;BME280;35423;37.320;-121.762;2023-11-22T02:50:14;101002.57;;;24.06;17.41
49529;BME280;35423;37.320;-121.762;2023-11-22T02:52:42;101002.53;;;24.26;17.49
49529;BME280;35423;37.320;-121.762;2023-11-22T02:55:15;101001.00;;;23.97;17.55
49529;BME280;35423;37.320;-121.762;2023-11-22T02:57:43;101001.57;;;24.14;17.58
49529;BME280;35423;37.320;-121.762;2023-11-22T03:00:09;101004.45;;;23.82;17.56
49529;BME280;35423;37.320;-121.762;2023-11-22T03:02:33;101004.76;;;24.00;17.50
49529;BME280;35423;37.320;-121.762;2023-11-22T03:05:00;101003.77;;;23.83;17.58
49529;BME280;35423;37.320;-121.762;2023-11-22T03:07:25;100998.32;;;23.95;17.56
49529;BME280;35423;37.320;-121.762;2023-11-22T03:09:50;100993.02;;;23.64;17.66
49529;BME280;35423;37.320;-121.762;2023-11-22T03:12:22;100992.64;;;23.71;17.77
49529;BME280;35423;37.320;-121.762;2023-11-22T03:14:51;100990.11;;;23.33;17.89
49529;BME280;35423;37.320;-121.762;2023-11-22T03:17:19;100989.60;;;23.03;17.91
49529;BME280;35423;37.320;-121.762;2023-11-22T03:19:43;100986.33;;;22.95;17.98
49529;BME280;35423;37.320;-121.762;2023-11-22T03:22:14;100986.32;;;22.86;17.95
49529;BME280;35423;37.320;-121.762;2023-11-22T03:24:46;100985.63;;;23.26;17.99
49529;BME280;35423;37.320;-121.762;2023-11-22T03:27:12;100986.59;;;23.20;18.08
49529;BME280;35423;37.320;-121.762;2023-11-22T03:29:51;100989.53;;;23.09;18.17
49529;BME280;35423;37.320;-121.762;2023-11-22T03:32:22;100990.04;;;22.97;18.22
49529;BME280;35423;37.320;-121.762;2023-11-22T03:34:50;100988.61;;;22.88;18.28
49529;BME280;35423;37.320;-121.762;2023-11-22T03:37:17;100993.61;;;22.63;18.23
49529;BME280;35423;37.320;-121.762;2023-11-22T03:39:44;100998.10;;;23.07;18.23
49529;BME280;35423;37.320;-121.762;2023-11-22T03:42:20;101003.75;;;22.52;18.24
49529;BME280;35423;37.320;-121.762;2023-11-22T03:44:45;101009.92;;;22.90;18.32
49529;BME280;35423;37.320;-121.762;2023-11-22T03:47:14;101013.16;;;22.58;18.44
49529;BME280;35423;37.320;-121.762;2023-11-22T03:49:41;101016.21;;;22.57;18.43
49529;BME280;35423;37.320;-121.762;2023-11-22T03:52:11;101017.64;;;22.74;18.37
49529;BME280;35423;37.320;-121.762;2023-11-22T03:54:37;101017.50;;;22.37;18.34
49529;BME280;35423;37.320;-121.762;2023-11-22T03:57:04;101019.29;;;22.77;18.38
49529;BME280;35423;37.320;-121.762;2023-11-22T03:59:31;101018.03;;;22.33;18.42
49529;BME280;35423;37.320;-121.762;2023-11-22T04:01:56;101020.64;;;22.45;18.34
49529;BME280;35423;37.320;-121.762;2023-11-22T04:04:22;101021.56;;;22.32;18.44
49529;BME280;35423;37.320;-121.762;2023-11-22T04:06:47;101024.72;;;22.69;18.52
49529;BME280;35423;37.320;-121.762;2023-11-22T04:09:15;101026.21;;;22.11;18.55
49529;BME280;35423;37.320;-121.762;2023-11-22T04:11:43;101026.45;;;22.50;18.59
49529;BME280;35423;37.320;-121.762;2023-11-22T04:14:08;101030.78;;;22.60;18.76
49529;BME280;35423;37.320;-121.762;2023-11-22T04:16:37;101033.46;;;22.27;18.87
49529;BME280;35423;37.320;-121.762;2023-11-22T04:19:04;101032.82;;;22.22;18.89
49529;BME280;35423;37.320;-121.762;2023-11-22T04:21:30;101030.57;;;22.18;18.95
49529;BME280;35423;37.320;-121.762;2023-11-22T04:23:59;101031.27;;;22.37;18.94
49529;BME280;35423;37.320;-121.762;2023-11-22T04:26:24;101035.60;;;21.66;18.97
49529;BME280;35423;37.320;-121.762;2023-11-22T04:28:50;101038.79;;;21.91;19.00
49529;BME280;35423;37.320;-121.762;2023-11-22T04:31:16;101036.06;;;21.70;19.01
49529;BME280;35423;37.320;-121.762;2023-11-22T04:33:43;101034.22;;;22.09;19.10
49529;BME280;35423;37.320;-121.762;2023-11-22T04:36:10;101028.87;;;22.26;19.11
49529;BME280;35423;37.320;-121.762;2023-11-22T04:38:35;101020.41;;;21.92;19.26
49529;BME280;35423;37.320;-121.762;2023-11-22T04:41:03;101009.38;;;21.95;19.31
49529;BME280;35423;37.320;-121.762;2023-11-22T04:43:24;100996.98;;;21.89;19.50
49529;BME280;35423;37.320;-121.762;2023-11-22T04:45:53;100991.52;;;21.97;19.75
49529;BME280;35423;37.320;-121.762;2023-11-22T04:48:19;100994.74;;;21.68;19.86
49529;BME280;35423;37.320;-121.762;2023-11-22T04:50:47;100998.21;;;21.78;20.05
49529;BME280;35423;37.320;-121.762;2023-11-22T04:53:15;100997.33;;;20.79;20.15
49529;BME280;35423;37.320;-121.762;2023-11-22T04:55:43;100996.68;;;21.60;20.00
49529;BME280;35423;37.320;-121.762;2023-11-22T04:58:08;100996.17;;;20.81;19.80
49529;BME280;35423;37.320;-121.762;2023-11-22T05:00:35;101000.12;;;21.70;19.71
49529;BME280;35423;37.320;-121.762;2023-11-22T05:03:05;100999.54;;;20.79;19.73
49529;BME280;35423;37.320;-121.762;2023-11-22T05:05:32;100998.40;;;21.24;19.57
49529;BME280;35423;37.320;-121.762;2023-11-22T05:07:59;101002.30;;;21.11;19.64
49529;BME280;35423;37.320;-121.762;2023-11-22T05:10:25;101009.60;;;21.09;19.75
49529;BME280;35423;37.320;-121.762;2023-11-22T05:12:51;101015.30;;;21.11;19.70
49529;BME280;35423;37.320;-121.762;2023-11-22T05:15:16;101014.89;;;20.88;19.70
49529;BME280;35423;37.320;-121.762;2023-11-22T05:17:44;101014.54;;;21.51;19.76
49529;BME280;35423;37.320;-121.762;2023-11-22T05:20:12;101012.81;;;21.02;19.76
49529;BME280;35423;37.320;-121.762;2023-11-22T05:22:39;101011.35;;;20.40;19.86
49529;BME280;35423;37.320;-121.762;2023-11-22T05:25:05;101011.09;;;21.17;19.69
49529;BME280;35423;37.320;-121.762;2023-11-22T05:27:42;101009.08;;;20.77;19.69
49529;BME280;35423;37.320;-121.762;2023-11-22T05:30:16;101005.22;;;20.29;19.32
49529;BME280;35423;37.320;-121.762;2023-11-22T05:32:42;101001.43;;;22.10;19.20
49529;BME280;35423;37.320;-121.762;2023-11-22T05:35:11;101000.75;;;21.45;19.53
49529;BME280;35423;37.320;-121.762;2023-11-22T05:37:42;100999.29;;;21.80;19.81
49529;BME280;35423;37.320;-121.762;2023-11-22T05:40:12;100998.46;;;21.32;19.96
49529;BME280;35423;37.320;-121.762;2023-11-22T05:42:39;100998.10;;;21.33;20.13
49529;BME280;35423;37.320;-121.762;2023-11-22T05:45:10;100998.59;;;20.67;20.27
49529;BME280;35423;37.320;-121.762;2023-11-22T05:47:45;101000.61;;;21.33;20.31
49529;BME280;35423;37.320;-121.762;2023-11-22T05:50:19;101000.22;;;20.54;20.41
49529;BME280;35423;37.320;-121.762;2023-11-22T05:52:55;101004.43;;;21.10;20.47
49529;BME280;35423;37.320;-121.762;2023-11-22T05:55:22;101004.28;;;20.14;20.54
49529;BME280;35423;37.320;-121.762;2023-11-22T05:58:00;101002.87;;;20.51;20.49
49529;BME280;35423;37.320;-121.762;2023-11-22T06:00:28;101002.65;;;19.91;20.61
49529;BME280;35423;37.320;-121.762;2023-11-22T06:02:56;101002.07;;;20.58;20.69
49529;BME280;35423;37.320;-121.762;2023-11-22T06:05:23;100998.01;;;19.69;20.79
49529;BME280;35423;37.320;-121.762;2023-11-22T06:07:48;100994.87;;;20.40;20.90
49529;BME280;35423;37.320;-121.762;2023-11-22T06:10:17;100987.91;;;20.49;20.78
49529;BME280;35423;37.320;-121.762;2023-11-22T06:12:45;100986.49;;;20.59;20.91
49529;BME280;35423;37.320;-121.762;2023-11-22T06:15:22;100986.60;;;20.51;21.02
49529;BME280;35423;37.320;-121.762;2023-11-22T06:17:35;100987.40;;;20.40;21.17
49529;BME280;35423;37.320;-121.762;2023-11-22T06:20:01;100988.79;;;20.61;21.23
49529;BME280;35423;37.320;-121.762;2023-11-22T06:22:29;100988.26;;;20.04;21.32
49529;BME280;35423;37.320;-121.762;2023-11-22T06:25:04;100990.03;;;20.37;21.37
49529;BME280;35423;37.320;-121.762;2023-11-22T06:27:25;100993.83;;;19.88;21.31
49529;BME280;35423;37.320;-121.762;2023-11-22T06:29:55;100996.56;;;19.96;21.20
49529;BME280;35423;37.320;-121.762;2023-11-22T06:32:19;100995.03;;;19.73;21.09
49529;BME280;35423;37.320;-121.762;2023-11-22T06:34:48;100993.48;;;19.97;21.18
49529;BME280;35423;37.320;-121.762;2023-11-22T06:37:14;100992.74;;;19.83;21.29
49529;BME280;35423;37.320;-121.762;2023-11-22T06:39:40;100990.96;;;19.73;21.32
49529;BME280;35423;37.320;-121.762;2023-11-22T06:42:15;100987.41;;;19.69;21.27
49529;BME280;35423;37.320;-121.762;2023-11-22T06:44:44;100983.79;;;19.88;21.26
49529;BME280;35423;37.320;-121.762;2023-11-22T06:47:16;100982.83;;;20.01;21.29
49529;BME280;35423;37.320;-121.762;2023-11-22T06:49:40;100978.99;;;20.16;21.36
49529;BME280;35423;37.320;-121.762;2023-11-22T06:52:08;100978.57;;;19.81;21.39
49529;BME280;35423;37.320;-121.762;2023-11-22T06:54:37;100980.89;;;19.56;21.40
49529;BME280;35423;37.320;-121.762;2023-11-22T06:57:05;100982.59;;;20.26;21.35
49529;BME280;35423;37.320;-121.762;2023-11-22T06:59:34;100979.72;;;19.70;21.38
49529;BME280;35423;37.320;-121.762;2023-11-22T07:02:00;100973.85;;;20.09;21.43
49529;BME280;35423;37.320;-121.762;2023-11-22T07:04:28;100967.96;;;19.52;21.41
49529;BME280;35423;37.320;-121.762;2023-11-22T07:06:53;100967.97;;;19.89;21.50
49529;BME280;35423;37.320;-121.762;2023-11-22T07:09:20;100965.04;;;18.91;21.53
49529;BME280;35423;37.320;-121.762;2023-11-22T07:11:44;100959.87;;;19.60;21.47
49529;BME280;35423;37.320;-121.762;2023-11-22T07:14:12;100952.05;;;19.36;21.46
49529;BME280;35423;37.320;-121.762;2023-11-22T07:16:38;100943.17;;;19.22;21.34
49529;BME280;35423;37.320;-121.762;2023-11-22T07:19:06;100942.00;;;19.96;21.25
49529;BME280;35423;37.320;-121.762;2023-11-22T07:21:40;100939.14;;;19.85;21.28
49529;BME280;35423;37.320;-121.762;2023-11-22T07:24:06;100940.89;;;19.73;21.33
49529;BME280;35423;37.320;-121.762;2023-11-22T07:26:31;100943.54;;;19.64;21.35
49529;BME280;35423;37.320;-121.762;2023-11-22T07:28:59;100946.03;;;19.59;21.37
49529;BME280;35423;37.320;-121.762;2023-11-22T07:31:25;100939.79;;;18.80;21.34
49529;BME280;35423;37.320;-121.762;2023-11-22T07:33:54;100938.36;;;19.31;21.30
49529;BME280;35423;37.320;-121.762;2023-11-22T07:36:23;100935.90;;;19.05;21.25
49529;BME280;35423;37.320;-121.762;2023-11-22T07:38:50;100938.70;;;19.19;21.32
49529;BME280;35423;37.320;-121.762;2023-11-22T07:41:17;100938.76;;;18.92;21.31
49529;BME280;35423;37.320;-121.762;2023-11-22T07:43:44;100930.14;;;19.15;21.37
49529;BME280;35423;37.320;-121.762;2023-11-22T07:46:10;100930.98;;;19.15;21.38
49529;BME280;35423;37.320;-121.762;2023-11-22T07:48:35;100930.95;;;19.47;21.34
49529;BME280;35423;37.320;-121.762;2023-11-22T07:51:02;100933.02;;;19.22;21.43
49529;BME280;35423;37.320;-121.762;2023-11-22T07:53:27;100935.24;;;18.92;21.49
49529;BME280;35423;37.320;-121.762;2023-11-22T07:55:54;100937.57;;;19.58;21.63
49529;BME280;35423;37.320;-121.762;2023-11-22T07:58:21;100935.13;;;18.50;21.69
49529;BME280;35423;37.320;-121.762;2023-11-22T08:00:47;100934.57;;;18.68;21.73
49529;BME280;35423;37.320;-121.762;2023-11-22T08:03:17;100933.13;;;19.24;21.66
49529;BME280;35423;37.320;-121.762;2023-11-22T08:05:44;100932.12;;;19.25;21.75
49529;BME280;35423;37.320;-121.762;2023-11-22T08:08:09;100931.50;;;19.27;21.80
49529;BME280;35423;37.320;-121.762;2023-11-22T08:10:38;100926.41;;;19.20;21.82
49529;BME280;35423;37.320;-121.762;2023-11-22T08:13:06;100927.44;;;19.10;21.87
49529;BME280;35423;37.320;-121.762;2023-11-22T08:15:30;100927.40;;;19.02;21.95
49529;BME280;35423;37.320;-121.762;2023-11-22T08:17:56;100926.88;;;18.94;22.01
49529;BME280;35423;37.320;-121.762;2023-11-22T08:20:24;100927.17;;;18.17;22.00
49529;BME280;35423;37.320;-121.762;2023-11-22T08:22:50;100926.43;;;18.85;21.99
49529;BME280;35423;37.320;-121.762;2023-11-22T08:25:15;100924.47;;;18.45;21.95
49529;BME280;35423;37.320;-121.762;2023-11-22T08:27:40;100919.60;;;18.90;22.03
49529;BME280;35423;37.320;-121.762;2023-11-22T08:30:08;100916.17;;;18.88;22.09
49529;BME280;35423;37.320;-121.762;2023-11-22T08:32:33;100914.49;;;18.60;22.11
49529;BME280;35423;37.320;-121.762;2023-11-22T08:34:58;100912.59;;;18.75;22.23
49529;BME280;35423;37.320;-121.762;2023-11-22T08:37:33;100912.48;;;18.95;22.35
49529;BME280;35423;37.320;-121.762;2023-11-22T08:39:59;100914.14;;;18.66;22.47
49529;BME280;35423;37.320;-121.762;2023-11-22T08:42:26;100917.95;;;18.35;22.49
49529;BME280;35423;37.320;-121.762;2023-11-22T08:44:58;100922.75;;;18.54;22.54
49529;BME280;35423;37.320;-121.762;2023-11-22T08:47:26;100921.95;;;18.63;22.42
49529;BME280;35423;37.320;-121.762;2023-11-22T08:49:51;100920.41;;;18.65;22.41
49529;BME280;35423;37.320;-121.762;2023-11-22T08:52:17;100914.67;;;18.08;22.41
49529;BME280;35423;37.320;-121.762;2023-11-22T08:54:47;100911.99;;;18.25;22.50
49529;BME280;35423;37.320;-121.762;2023-11-22T08:57:17;100906.14;;;18.51;22.49
49529;BME280;35423;37.320;-121.762;2023-11-22T08:59:48;100901.12;;;18.60;22.43
49529;BME280;35423;37.320;-121.762;2023-11-22T09:02:13;100896.77;;;18.98;22.51
49529;BME280;35423;37.320;-121.762;2023-11-22T09:04:39;100889.06;;;18.34;22.66
49529;BME280;35423;37.320;-121.762;2023-11-22T09:07:13;100884.40;;;18.52;22.76
49529;BME280;35423;37.320;-121.762;2023-11-22T09:09:38;100886.26;;;18.15;22.82
49529;BME280;35423;37.320;-121.762;2023-11-22T09:12:04;100888.72;;;18.54;22.90
49529;BME280;35423;37.320;-121.762;2023-11-22T09:14:30;100882.33;;;18.31;22.94
49529;BME280;35423;37.320;-121.762;2023-11-22T09:16:59;100882.76;;;18.48;22.97
49529;BME280;35423;37.320;-121.762;2023-11-22T09:19:41;100886.10;;;18.43;23.03
49529;BME280;35423;37.320;-121.762;2023-11-22T09:22:05;100882.77;;;18.37;23.09
49529;BME280;35423;37.320;-121.762;2023-11-22T09:24:32;100878.63;;;18.17;23.14
49529;BME280;35423;37.320;-121.762;2023-11-22T09:27:01;100878.46;;;18.14;23.23
49529;BME280;35423;37.320;-121.762;2023-11-22T09:29:28;100882.59;;;17.55;23.33
49529;BME280;35423;37.320;-121.762;2023-11-22T09:31:56;100882.34;;;18.23;23.41
49529;BME280;35423;37.320;-121.762;2023-11-22T09:34:23;100879.51;;;17.50;23.52
49529;BME280;35423;37.320;-121.762;2023-11-22T09:36:49;100875.79;;;18.17;23.61
49529;BME280;35423;37.320;-121.762;2023-11-22T09:39:15;100867.80;;;17.26;23.57
49529;BME280;35423;37.320;-121.762;2023-11-22T09:41:41;100863.36;;;18.24;23.59
49529;BME280;35423;37.320;-121.762;2023-11-22T09:44:07;100861.96;;;18.16;23.74
49529;BME280;35423;37.320;-121.762;2023-11-22T09:46:33;100858.63;;;18.02;23.87
49529;BME280;35423;37.320;-121.762;2023-11-22T09:48:58;100853.62;;;17.95;23.92
49529;BME280;35423;37.320;-121.762;2023-11-22T09:51:27;100855.79;;;16.92;24.03
49529;BME280;35423;37.320;-121.762;2023-11-22T09:53:55;100855.83;;;17.66;24.11
49529;BME280;35423;37.320;-121.762;2023-11-22T09:56:15;100847.61;;;17.40;24.12
49529;BME280;35423;37.320;-121.762;2023-11-22T09:58:45;100839.84;;;17.85;24.20
49529;BME280;35423;37.320;-121.762;2023-11-22T10:01:15;100837.85;;;17.76;24.14
49529;BME280;35423;37.320;-121.762;2023-11-22T10:03:38;100839.29;;;17.67;24.14
49529;BME280;35423;37.320;-121.762;2023-11-22T10:06:07;100840.77;;;18.05;24.25
49529;BME280;35423;37.320;-121.762;2023-11-22T10:08:40;100841.20;;;17.50;24.32
49529;BME280;35423;37.320;-121.762;2023-11-22T10:11:16;100839.83;;;17.74;24.24
49529;BME280;35423;37.320;-121.762;2023-11-22T10:13:42;100838.98;;;17.68;24.18
49529;BME280;35423;37.320;-121.762;2023-11-22T10:16:17;100839.88;;;17.69;24.02
49529;BME280;35423;37.320;-121.762;2023-11-22T10:18:39;100845.28;;;17.50;23.88
49529;BME280;35423;37.320;-121.762;2023-11-22T10:21:04;100846.85;;;17.96;23.87
49529;BME280;35423;37.320;-121.762;2023-11-22T10:23:34;100843.26;;;17.42;23.96
49529;BME280;35423;37.320;-121.762;2023-11-22T10:25:59;100839.65;;;17.69;23.99
49529;BME280;35423;37.320;-121.762;2023-11-22T10:28:26;100836.05;;;17.42;24.15
49529;BME280;35423;37.320;-121.762;2023-11-22T10:30:52;100837.57;;;17.49;24.36
49529;BME280;35423;37.320;-121.762;2023-11-22T10:33:18;100836.28;;;16.70;24.48
49529;BME280;35423;37.320;-121.762;2023-11-22T10:35:49;100839.35;;;17.43;24.39
49529;BME280;35423;37.320;-121.762;2023-11-22T10:38:18;100838.52;;;16.71;24.29
49529;BME280;35423;37.320;-121.762;2023-11-22T10:40:42;100843.86;;;17.63;24.21
49529;BME280;35423;37.320;-121.762;2023-11-22T10:43:09;100842.72;;;17.31;24.19
49529;BME280;35423;37.320;-121.762;2023-11-22T10:45:35;100837.35;;;17.56;24.10
49529;BME280;35423;37.320;-121.762;2023-11-22T10:48:02;100836.19;;;17.33;23.96
49529;BME280;35423;37.320;-121.762;2023-11-22T10:50:27;100841.49;;;17.34;23.94
49529;BME280;35423;37.320;-121.762;2023-11-22T10:52:58;100841.87;;;17.39;23.94
49529;BME280;35423;37.320;-121.762;2023-11-22T10:55:21;100837.17;;;16.80;23.83
49529;BME280;35423;37.320;-121.762;2023-11-22T10:57:51;100829.05;;;17.48;23.79
49529;BME280;35423;37.320;-121.762;2023-11-22T11:00:19;100821.32;;;17.12;23.70
49529;BME280;35423;37.320;-121.762;2023-11-22T11:02:50;100817.56;;;17.30;23.72
49529;BME280;35423;37.320;-121.762;2023-11-22T11:05:16;100814.50;;;17.38;23.61
49529;BME280;35423;37.320;-121.762;2023-11-22T11:07:40;100815.41;;;17.54;23.58
49529;BME280;35423;37.320;-121.762;2023-11-22T11:10:09;100815.66;;;17.07;23.52
49529;BME280;35423;37.320;-121.762;2023-11-22T11:12:34;100814.64;;;17.46;23.53
49529;BME280;35423;37.320;-121.762;2023-11-22T11:15:00;100812.43;;;17.33;23.67
49529;BME280;35423;37.320;-121.762;2023-11-22T11:17:25;100812.69;;;16.54;23.79
49529;BME280;35423;37.320;-121.762;2023-11-22T11:19:51;100810.41;;;17.17;23.96
49529;BME280;35423;37.320;-121.762;2023-11-22T11:22:26;100812.31;;;16.44;24.10
49529;BME280;35423;37.320;-121.762;2023-11-22T11:25:00;100810.74;;;17.12;24.21
49529;BME280;35423;37.320;-121.762;2023-11-22T11:27:20;100808.66;;;16.95;24.25
49529;BME280;35423;37.320;-121.762;2023-11-22T11:29:45;100810.17;;;17.15;24.26
49529;BME280;35423;37.320;-121.762;2023-11-22T11:34:48;100806.58;;;16.87;24.28
49529;BME280;35423;37.320;-121.762;2023-11-22T11:37:11;100804.47;;;17.41;24.24
49529;BME280;35423;37.320;-121.762;2023-11-22T11:39:42;100806.94;;;16.91;24.26
49529;BME280;35423;37.320;-121.762;2023-11-22T11:42:15;100810.68;;;17.11;24.22
49529;BME280;35423;37.320;-121.762;2023-11-22T11:44:36;100812.64;;;16.82;24.33
49529;BME280;35423;37.320;-121.762;2023-11-22T11:49:37;100800.67;;;16.69;24.19
49529;BME280;35423;37.320;-121.762;2023-11-22T11:51:55;100796.47;;;16.88;24.11
49529;BME280;35423;37.320;-121.762;2023-11-22T11:54:20;100790.33;;;16.53;24.05
49529;BME280;35423;37.320;-121.762;2023-11-22T11:56:45;100792.44;;;17.31;24.01
49529;BME280;35423;37.320;-121.762;2023-11-22T11:59:13;100797.27;;;16.71;24.14
49529;BME280;35423;37.320;-121.762;2023-11-22T12:01:47;100794.41;;;16.84;24.31
49529;BME280;35423;37.320;-121.762;2023-11-22T12:04:13;100793.16;;;16.82;24.41
49529;BME280;35423;37.320;-121.762;2023-11-22T12:06:40;100791.53;;;16.97;24.36
49529;BME280;35423;37.320;-121.762;2023-11-22T12:09:09;100786.14;;;16.89;24.38
49529;BME280;35423;37.320;-121.762;2023-11-22T12:11:35;100775.45;;;16.62;24.32
49529;BME280;35423;37.320;-121.762;2023-11-22T12:14:00;100773.21;;;16.79;24.46
49529;BME280;35423;37.320;-121.762;2023-11-22T12:16:27;100773.29;;;16.52;24.54
49529;BME280;35423;37.320;-121.762;2023-11-22T12:18:57;100775.58;;;16.82;24.60
49529;BME280;35423;37.320;-121.762;2023-11-22T12:21:23;100780.84;;;16.36;24.62
49529;BME280;35423;37.320;-121.762;2023-11-22T12:23:49;100782.51;;;16.92;24.84
49529;BME280;35423;37.320;-121.762;2023-11-22T12:26:15;100775.89;;;17.04;24.95